Time;durP1;ratioP1;P1;durP2;ratioP2;P2;SDS_P1;SDS_P2;PMS_P1;PMS_P2;Temp;Humidity;BMP_temperature;BMP_pressure;BME280_temperature;BME280_humidity;BME280_pressure;Samples;Min_cycle;Max_cycle;Signal;HPM_P1;HPM_P2
2022/04/02 00:00:31;;;;;;;36.07;18.03;;;;;;;-145.69;100.00;72098.91;5073162;28;20202;-76
2022/04/02 00:02:59;;;;;;;37.17;17.63;;;;;;;-145.69;100.00;72110.84;5073035;28;20237;-76
2022/04/02 00:05:27;;;;;;;35.43;16.90;;;;;;;-145.69;100.00;72108.84;5072984;28;20252;-76
2022/04/02 00:07:54;;;;;;;33.13;16.63;;;;;;;-145.69;100.00;72114.81;5073019;28;20195;-75
2022/04/02 00:10:20;;;;;;;33.40;16.50;;;;;;;-145.69;100.00;72118.81;5073040;28;20226;-76
2022/04/02 00:12:47;;;;;;;35.20;16.60;;;;;;;-145.69;100.00;72106.88;5073075;28;20198;-76
2022/04/02 00:15:14;;;;;;;36.13;17.17;;;;;;;-145.69;100.00;72118.81;5072989;28;20206;-75
2022/04/02 00:17:41;;;;;;;34.97;18.17;;;;;;;-145.69;100.00;72118.81;5072055;28;20802;-76
2022/04/02 00:20:10;;;;;;;33.57;16.50;;;;;;;-145.69;100.00;72122.78;5073141;28;20234;-76
2022/04/02 00:22:36;;;;;;;34.27;15.73;;;;;;;-145.69;100.00;72124.78;5072865;28;20600;-76
2022/04/02 00:25:03;;;;;;;31.47;15.70;;;;;;;-145.69;100.00;72116.81;5072943;28;20210;-76
2022/04/02 00:27:29;;;;;;;33.33;16.20;;;;;;;-145.69;100.00;72124.78;5072811;28;20206;-75
2022/04/02 00:29:56;;;;;;;34.47;15.83;;;;;;;-145.69;100.00;72116.81;5072637;28;20535;-76
2022/04/02 00:32:22;;;;;;;30.47;14.47;;;;;;;-145.69;100.00;72118.81;5074645;28;20580;-76
2022/04/02 00:34:50;;;;;;;31.10;15.40;;;;;;;-145.69;100.00;72118.81;5076907;28;20194;-76
2022/04/02 00:37:17;;;;;;;35.83;15.43;;;;;;;-145.69;100.00;72106.88;5076435;28;20654;-76
2022/04/02 00:39:44;;;;;;;27.33;13.57;;;;;;;-145.69;100.00;72110.84;5065316;28;20207;-75
2022/04/02 00:42:10;;;;;;;31.50;14.90;;;;;;;-145.69;100.00;72110.84;5056690;28;20206;-76
2022/04/02 00:44:37;;;;;;;26.47;13.87;;;;;;;-145.69;100.00;72114.81;5056713;28;20609;-76
2022/04/02 00:47:03;;;;;;;29.23;13.47;;;;;;;-145.69;100.00;72110.84;5056621;28;20238;-75
2022/04/02 00:49:30;;;;;;;27.80;14.03;;;;;;;-145.69;100.00;72100.91;5056787;28;20256;-76
2022/04/02 00:51:57;;;;;;;28.80;13.93;;;;;;;-145.69;100.00;72106.88;5056593;28;20257;-76
2022/04/02 00:54:24;;;;;;;27.73;14.03;;;;;;;-145.69;100.00;72110.84;5056696;28;20559;-76
2022/04/02 00:56:51;;;;;;;24.80;13.63;;;;;;;-145.69;100.00;72110.84;5056473;28;20203;-76
2022/04/02 00:59:17;;;;;;;30.43;14.30;;;;;;;-145.69;100.00;72102.88;5056315;28;20225;-75
2022/04/02 01:01:45;;;;;;;28.43;14.80;;;;;;;-145.69;100.00;72098.91;5056329;28;20716;-75
2022/04/02 01:04:11;;;;;;;30.53;13.87;;;;;;;-145.69;100.00;72106.88;5056271;28;20723;-76
2022/04/02 01:06:40;;;;;;;30.57;14.27;;;;;;;-145.69;100.00;72090.94;5069128;28;20225;-75
2022/04/02 01:09:07;;;;;;;29.43;13.57;;;;;;;-145.69;100.00;72094.94;5076375;28;20203;-75
2022/04/02 01:11:40;;;;;;;27.40;13.30;;;;;;;-145.69;100.00;72090.94;5075990;28;20223;-76
2022/04/02 01:14:07;;;;;;;22.40;12.07;;;;;;;-145.69;100.00;72086.97;5076370;28;20198;-76
2022/04/02 01:16:34;;;;;;;26.53;13.20;;;;;;;-145.69;100.00;72094.94;5076286;28;20210;-76
2022/04/02 01:19:01;;;;;;;27.33;13.00;;;;;;;-145.69;100.00;72096.91;5076152;28;20199;-76
2022/04/02 01:21:28;;;;;;;26.40;12.87;;;;;;;-145.69;100.00;72096.91;5075916;28;20628;-76
2022/04/02 01:23:56;;;;;;;22.30;11.60;;;;;;;-145.69;100.00;72094.94;5076118;28;20656;-76
2022/04/02 01:26:23;;;;;;;22.87;11.70;;;;;;;-145.69;100.00;72090.94;5075816;28;20203;-76
2022/04/02 01:28:53;;;;;;;25.63;12.27;;;;;;;-145.69;100.00;72094.94;5076095;28;20206;-76
2022/04/02 01:31:21;;;;;;;22.53;11.07;;;;;;;-145.69;100.00;72094.94;5075947;28;20260;-76
2022/04/02 01:33:49;;;;;;;28.30;13.43;;;;;;;-145.69;100.00;72094.94;5076006;28;20202;-76
2022/04/02 01:36:16;;;;;;;25.27;12.50;;;;;;;-145.69;100.00;72090.94;5075658;28;20195;-76
2022/04/02 01:38:43;;;;;;;22.47;11.33;;;;;;;-145.69;100.00;72084.97;5075471;28;20198;-76
2022/04/02 01:41:11;;;;;;;22.93;12.23;;;;;;;-145.69;100.00;72086.97;5075643;28;20187;-76
2022/04/02 01:43:38;;;;;;;23.67;10.83;;;;;;;-145.69;100.00;72082.97;5074442;28;20661;-76
2022/04/02 01:46:05;;;;;;;19.40;10.80;;;;;;;-145.69;100.00;72088.97;5075552;28;20205;-76
2022/04/02 01:48:33;;;;;;;19.97;10.47;;;;;;;-145.69;100.00;72094.94;5075434;28;20578;-76
2022/04/02 01:51:00;;;;;;;17.13;9.97;;;;;;;-145.69;100.00;72084.97;5075504;28;20639;-76
2022/04/02 01:53:27;;;;;;;19.93;10.70;;;;;;;-145.69;100.00;72086.97;5075078;28;20195;-76
2022/04/02 01:55:54;;;;;;;18.00;10.23;;;;;;;-145.69;100.00;72082.97;5075358;28;20206;-76
2022/04/02 01:58:22;;;;;;;17.83;9.93;;;;;;;-145.69;100.00;72090.94;5075491;28;20206;-76
2022/04/02 02:00:48;;;;;;;19.57;10.77;;;;;;;-145.69;100.00;72086.97;5075431;28;20213;-76
2022/04/02 02:03:16;;;;;;;17.47;10.20;;;;;;;-145.69;100.00;72090.94;5075353;28;20387;-76
2022/04/02 02:05:42;;;;;;;17.43;9.60;;;;;;;-145.69;100.00;72094.94;5075465;28;20202;-76
2022/04/02 02:08:09;;;;;;;18.80;10.23;;;;;;;-145.69;100.00;72088.97;5075077;28;20252;-76
2022/04/02 02:10:35;;;;;;;19.77;10.27;;;;;;;-145.69;100.00;72090.94;5075504;28;20336;-76
2022/04/02 02:13:02;;;;;;;17.47;9.43;;;;;;;-145.69;100.00;72086.97;5075196;28;20202;-76
2022/04/02 02:15:30;;;;;;;19.80;9.97;;;;;;;-145.69;100.00;72090.94;5075217;28;20291;-76
2022/04/02 02:17:57;;;;;;;20.30;10.53;;;;;;;-145.69;100.00;72098.91;5074784;28;20899;-76
2022/04/02 02:20:23;;;;;;;20.43;11.00;;;;;;;-145.69;100.00;72094.94;5074905;28;20203;-76
2022/04/02 02:22:50;;;;;;;17.70;9.63;;;;;;;-145.69;100.00;72090.94;5075145;28;20202;-76
2022/04/02 02:25:18;;;;;;;19.30;10.00;;;;;;;-145.69;100.00;72088.97;5075074;28;20230;-76
2022/04/02 02:27:46;;;;;;;19.87;10.33;;;;;;;-145.69;100.00;72086.97;5074222;28;20203;-76
2022/04/02 02:30:13;;;;;;;21.73;10.50;;;;;;;-145.69;100.00;72077.00;5074726;28;20191;-76
2022/04/02 02:32:41;;;;;;;18.67;10.07;;;;;;;-145.69;100.00;72077.00;5074635;28;20234;-75
2022/04/02 02:38:06;;;;;;;17.53;9.53;;;;;;;-145.69;100.00;72084.97;5074716;28;20202;-76
2022/04/02 02:40:32;;;;;;;16.00;8.40;;;;;;;-145.69;100.00;72090.94;5074726;28;20199;-76
2022/04/02 02:42:59;;;;;;;17.23;9.13;;;;;;;-145.69;100.00;72094.94;5069074;28;20200;-76
2022/04/02 02:45:26;;;;;;;20.23;9.67;;;;;;;-145.69;100.00;72098.91;5054459;28;20215;-76
2022/04/02 02:47:54;;;;;;;18.57;9.33;;;;;;;-145.69;100.00;72100.91;5054614;28;20200;-76
2022/04/02 02:50:21;;;;;;;18.10;9.80;;;;;;;-145.69;100.00;72104.88;5054623;28;20203;-76
2022/04/02 02:52:47;;;;;;;16.13;8.87;;;;;;;-145.69;100.00;72106.88;5054281;28;20231;-76
2022/04/02 02:55:14;;;;;;;15.90;8.63;;;;;;;-145.69;100.00;72094.94;5054176;28;20200;-76
2022/04/02 02:57:40;;;;;;;20.57;9.20;;;;;;;-145.69;100.00;72098.91;5069614;28;20194;-76
2022/04/02 03:00:08;;;;;;;16.30;9.20;;;;;;;-145.69;100.00;72098.91;5074030;28;20195;-76
2022/04/02 03:02:37;;;;;;;16.30;9.17;;;;;;;-145.69;100.00;72098.91;5074286;28;20272;-76
2022/04/02 03:05:05;;;;;;;19.43;9.87;;;;;;;-145.69;100.00;72100.91;5074209;28;20194;-76
2022/04/02 03:07:36;;;;;;;18.23;9.63;;;;;;;-145.69;100.00;72094.94;5073980;28;20195;-76
2022/04/02 03:10:03;;;;;;;18.70;9.07;;;;;;;-145.69;100.00;72094.94;5073999;28;20203;-76
2022/04/02 03:12:29;;;;;;;18.33;9.37;;;;;;;-145.69;100.00;72094.94;5073747;28;20226;-76
2022/04/02 03:14:56;;;;;;;17.27;8.77;;;;;;;-145.69;100.00;72090.94;5073938;28;20202;-76
2022/04/02 03:17:22;;;;;;;16.77;8.50;;;;;;;-145.69;100.00;72100.91;5073669;28;20713;-76
2022/04/02 03:19:49;;;;;;;16.63;9.10;;;;;;;-145.69;100.00;72090.94;5074022;28;20203;-76
2022/04/02 03:22:16;;;;;;;24.03;11.83;;;;;;;-145.69;100.00;72090.94;5073823;28;20198;-76
2022/04/02 03:24:43;;;;;;;25.53;12.17;;;;;;;-145.69;100.00;72094.94;5073698;28;20707;-76
2022/04/02 03:27:09;;;;;;;27.43;13.30;;;;;;;-145.69;100.00;72088.97;5073314;28;20198;-76
2022/04/02 03:29:36;;;;;;;25.27;12.70;;;;;;;-145.69;100.00;72096.91;5073599;28;20220;-75
2022/04/02 03:32:02;;;;;;;28.97;14.90;;;;;;;-145.69;100.00;72102.88;5073548;28;20222;-75
2022/04/02 03:34:29;;;;;;;30.67;14.10;;;;;;;-145.69;100.00;72106.88;5073592;28;20222;-75
2022/04/02 03:36:55;;;;;;;35.03;16.73;;;;;;;-145.69;100.00;72102.88;5073366;28;20209;-75
2022/04/02 03:39:23;;;;;;;34.53;16.40;;;;;;;-145.69;100.00;72098.91;5073375;28;20206;-75
2022/04/02 03:41:53;;;;;;;29.80;15.60;;;;;;;-145.69;100.00;72106.88;5073262;28;20202;-75
2022/04/02 03:44:19;;;;;;;34.47;16.70;;;;;;;-145.69;100.00;72102.88;5073297;28;20654;-75
2022/04/02 03:49:30;;;;;;;33.87;16.00;;;;;;;-145.69;100.00;72100.91;5073282;28;20834;-76
2022/04/02 03:51:57;;;;;;;35.10;16.73;;;;;;;-145.69;100.00;72094.94;5073311;28;20287;-75
2022/04/02 03:54:24;;;;;;;36.47;16.23;;;;;;;-145.69;100.00;72104.88;5073045;28;20199;-76
2022/04/02 03:56:51;;;;;;;34.23;16.13;;;;;;;-145.69;100.00;72110.84;5072879;28;20546;-75
2022/04/02 03:59:18;;;;;;;34.20;15.83;;;;;;;-145.69;100.00;72106.88;5073059;28;20202;-75
2022/04/02 04:01:44;;;;;;;42.43;17.83;;;;;;;-145.69;100.00;72106.88;5072889;28;20211;-76
2022/04/02 04:04:11;;;;;;;33.50;16.03;;;;;;;-145.69;100.00;72120.81;5073108;28;20195;-75
2022/04/02 04:06:37;;;;;;;38.03;16.37;;;;;;;-145.69;100.00;72104.88;5072379;28;20199;-76
2022/04/02 04:09:04;;;;;;;32.43;16.17;;;;;;;-145.69;100.00;72120.81;5072850;28;20646;-75
2022/04/02 04:11:33;;;;;;;27.73;14.20;;;;;;;-145.69;100.00;72110.84;5072711;28;20689;-75
2022/04/02 04:13:59;;;;;;;28.70;14.97;;;;;;;-145.69;100.00;72112.84;5073085;28;20644;-75
2022/04/02 04:16:26;;;;;;;28.07;14.33;;;;;;;-145.69;100.00;72114.81;5073059;28;20207;-74
2022/04/02 04:18:52;;;;;;;27.77;13.97;;;;;;;-145.69;100.00;72118.81;5072721;28;20230;-75
2022/04/02 04:21:19;;;;;;;28.97;14.13;;;;;;;-145.69;100.00;72116.81;5073614;28;20214;-75
2022/04/02 04:23:45;;;;;;;28.03;14.27;;;;;;;-145.69;100.00;72122.78;5072782;28;20692;-75
2022/04/02 04:26:13;;;;;;;23.93;12.80;;;;;;;-145.69;100.00;72122.78;5072614;28;20251;-75
2022/04/02 04:28:40;;;;;;;24.73;12.40;;;;;;;-145.69;100.00;72118.81;5072701;28;20658;-75
2022/04/02 04:31:07;;;;;;;25.53;13.20;;;;;;;-145.69;100.00;72118.81;5072666;28;20202;-75
2022/04/02 04:33:35;;;;;;;23.37;12.17;;;;;;;-145.69;100.00;72122.78;5072657;28;20562;-75
2022/04/02 04:36:02;;;;;;;23.80;13.00;;;;;;;-145.69;100.00;72124.78;5072649;28;20252;-75
2022/04/02 04:38:28;;;;;;;23.47;12.43;;;;;;;-145.69;100.00;72122.78;5072829;28;20199;-75
2022/04/02 04:40:54;;;;;;;22.43;12.27;;;;;;;-145.69;100.00;72126.78;5062980;28;20245;-76
2022/04/02 04:43:21;;;;;;;21.77;11.60;;;;;;;-145.69;100.00;72138.72;5052703;28;20210;-75
2022/04/02 04:45:49;;;;;;;21.53;11.37;;;;;;;-145.69;100.00;72122.78;5052614;28;20221;-75
2022/04/02 04:48:15;;;;;;;23.87;11.97;;;;;;;-145.69;100.00;72136.72;5052565;28;20200;-75
2022/04/02 04:50:42;;;;;;;22.53;11.63;;;;;;;-145.69;100.00;72138.72;5052370;28;20582;-75
2022/04/02 04:53:09;;;;;;;24.60;12.27;;;;;;;-145.69;100.00;72136.72;5052458;28;20265;-75
2022/04/02 04:55:36;;;;;;;21.83;11.63;;;;;;;-145.69;100.00;72146.69;5055262;28;20198;-76
2022/04/02 04:58:03;;;;;;;24.03;12.47;;;;;;;-145.69;100.00;72150.66;5072449;28;20202;-76
2022/04/02 05:00:29;;;;;;;25.67;12.10;;;;;;;-145.69;100.00;72150.66;5072517;28;20293;-76
2022/04/02 05:02:57;;;;;;;23.23;12.20;;;;;;;-145.69;100.00;72158.63;5072250;28;20228;-75
2022/04/02 05:05:23;;;;;;;21.50;11.63;;;;;;;-145.69;100.00;72162.59;5072657;28;20202;-76
2022/04/02 05:07:50;;;;;;;22.80;11.33;;;;;;;-145.69;100.00;72168.56;5072442;28;20221;-76
2022/04/02 05:10:19;;;;;;;22.87;11.23;;;;;;;-145.69;100.00;72162.59;5072409;28;20672;-76
2022/04/02 05:12:46;;;;;;;20.50;10.63;;;;;;;-145.69;100.00;72170.56;5072525;28;20687;-75
2022/04/02 05:15:13;;;;;;;23.17;11.47;;;;;;;-145.69;100.00;72182.50;5072410;28;20206;-75
2022/04/02 05:17:40;;;;;;;21.27;10.80;;;;;;;-145.69;100.00;72174.53;5072851;28;20619;-76
2022/04/02 05:20:11;;;;;;;18.47;10.47;;;;;;;-145.69;100.00;72182.50;5076123;28;20668;-76
2022/04/02 05:22:37;;;;;;;19.00;9.97;;;;;;;-145.69;100.00;72188.47;5076154;28;20198;-75
2022/04/02 05:25:05;;;;;;;20.87;9.87;;;;;;;-145.69;100.00;72174.53;5076142;28;20195;-76
2022/04/02 05:27:32;;;;;;;21.13;9.37;;;;;;;-145.69;100.00;72182.50;5075744;28;20195;-76
2022/04/02 05:30:00;;;;;;;13.73;8.07;;;;;;;-145.69;100.00;72190.47;5075910;28;20198;-75
2022/04/02 05:32:28;;;;;;;15.23;9.00;;;;;;;-145.69;100.00;72186.47;5075672;28;20288;-76
2022/04/02 05:34:54;;;;;;;16.50;9.33;;;;;;;-145.69;100.00;72184.50;5076014;28;20199;-76
2022/04/02 05:37:23;;;;;;;18.40;9.43;;;;;;;-145.69;100.00;72190.47;5075743;28;20198;-76
2022/04/02 05:39:49;;;;;;;18.67;9.23;;;;;;;-145.69;100.00;72194.44;5075879;28;20210;-76
2022/04/02 05:42:16;;;;;;;17.03;9.93;;;;;;;-145.69;100.00;72186.47;5075925;28;20206;-76
2022/04/02 05:44:42;;;;;;;17.93;9.47;;;;;;;-145.69;100.00;72178.53;5075770;28;20206;-76
2022/04/02 05:47:09;;;;;;;18.63;8.70;;;;;;;-145.69;100.00;72198.41;5075956;28;20198;-76
2022/04/02 05:49:37;;;;;;;22.97;8.10;;;;;;;-145.69;100.00;72196.44;5075675;28;20226;-75
2022/04/02 05:52:04;;;;;;;17.37;8.07;;;;;;;-145.69;100.00;72208.38;5075403;28;20693;-75
2022/04/02 05:54:33;;;;;;;15.33;7.87;;;;;;;-145.69;100.00;72206.38;5075397;28;20202;-75
2022/04/02 05:57:00;;;;;;;13.00;7.57;;;;;;;-145.69;100.00;72202.41;5075490;28;20281;-76
2022/04/02 05:59:26;;;;;;;13.90;7.83;;;;;;;-145.69;100.00;72216.34;5075188;28;20199;-75
2022/04/02 06:01:53;;;;;;;14.00;7.27;;;;;;;-145.69;100.00;72210.38;5075389;28;20259;-76
2022/04/02 06:04:19;;;;;;;13.50;8.07;;;;;;;-145.69;100.00;72210.38;5075451;28;20236;-75
2022/04/02 06:06:46;;;;;;;14.27;7.53;;;;;;;-145.69;100.00;72196.44;5075268;28;20206;-76
2022/04/02 06:09:12;;;;;;;11.27;7.30;;;;;;;-145.69;100.00;72198.41;5075446;28;20211;-75
2022/04/02 06:11:40;;;;;;;14.50;7.50;;;;;;;-145.69;100.00;72214.34;5074937;28;20558;-75
2022/04/02 06:14:06;;;;;;;13.77;6.90;;;;;;;-145.69;100.00;72216.34;5075061;28;20673;-75
2022/04/02 06:16:33;;;;;;;10.33;6.50;;;;;;;-145.69;100.00;72200.41;5074992;28;20196;-75
2022/04/02 06:19:00;;;;;;;10.17;6.33;;;;;;;-145.69;100.00;72206.38;5074891;28;20705;-75
2022/04/02 06:21:26;;;;;;;11.43;6.83;;;;;;;-145.69;100.00;72210.38;5074891;28;20264;-74
2022/04/02 06:23:52;;;;;;;12.57;7.03;;;;;;;-145.69;100.00;72212.34;5074984;28;20600;-75
2022/04/02 06:26:19;;;;;;;10.40;5.93;;;;;;;-145.69;100.00;72214.34;5074794;28;20203;-75
2022/04/02 06:28:48;;;;;;;9.83;5.43;;;;;;;-145.69;100.00;72222.31;5075027;28;20213;-75
2022/04/02 06:31:14;;;;;;;10.80;5.73;;;;;;;-145.69;100.00;72218.31;5074374;28;20627;-75
2022/04/02 06:33:41;;;;;;;9.60;5.57;;;;;;;-145.69;100.00;72222.31;5074852;28;20253;-75
2022/04/02 06:36:08;;;;;;;14.13;7.13;;;;;;;-145.69;100.00;72210.38;5062367;28;20202;-75
2022/04/02 06:38:35;;;;;;;25.13;11.47;;;;;;;-145.69;100.00;72224.28;5054552;28;20254;-75
2022/04/02 06:41:01;;;;;;;65.73;27.20;;;;;;;-145.69;100.00;72224.28;5054627;28;20666;-75
2022/04/02 06:43:28;;;;;;;29.33;14.07;;;;;;;-145.69;100.00;72224.28;5054776;28;20210;-75
2022/04/02 06:45:56;;;;;;;9.57;6.40;;;;;;;-145.69;100.00;72230.25;5054524;28;20666;-75
2022/04/02 06:48:23;;;;;;;8.83;5.63;;;;;;;-145.69;100.00;72234.25;5072827;28;20281;-75
2022/04/02 06:50:49;;;;;;;10.37;5.73;;;;;;;-145.69;100.00;72234.25;5074492;28;20225;-75
2022/04/02 06:53:16;;;;;;;11.00;5.77;;;;;;;-145.69;100.00;72222.31;5074262;28;20226;-75
2022/04/02 06:55:42;;;;;;;11.30;5.90;;;;;;;-145.69;100.00;72218.31;5074382;28;20218;-75
2022/04/02 06:58:23;;;;;;;11.53;6.63;;;;;;;-145.69;100.00;72218.31;5074587;28;20198;-75
2022/04/02 07:00:49;;;;;;;10.27;6.13;;;;;;;-145.69;100.00;72228.28;5074450;28;20199;-75
2022/04/02 07:03:17;;;;;;;10.90;6.23;;;;;;;-145.69;100.00;72226.28;5074224;28;20202;-75
2022/04/02 07:05:44;;;;;;;8.90;5.50;;;;;;;-145.69;100.00;72238.22;5074106;28;20608;-75
2022/04/02 07:08:10;;;;;;;9.43;5.73;;;;;;;-145.69;100.00;72240.22;5073919;28;20615;-76
2022/04/02 07:10:37;;;;;;;9.93;6.23;;;;;;;-145.69;100.00;72230.25;5074345;28;20203;-76
2022/04/02 07:13:03;;;;;;;24.20;15.70;;;;;;;-145.69;100.00;72242.22;5074163;28;20249;-76
2022/04/02 07:15:30;;;;;;;26.50;18.50;;;;;;;-145.69;100.00;72234.25;5073946;28;20199;-75
2022/04/02 07:17:56;;;;;;;14.20;10.27;;;;;;;-145.69;100.00;72238.22;5073608;28;20283;-75
2022/04/02 07:20:27;;;;;;;9.20;4.87;;;;;;;-145.69;100.00;72208.38;5073975;28;20199;-75
2022/04/02 07:22:54;;;;;;;11.30;5.77;;;;;;;-145.69;100.00;72214.34;5073772;28;20214;-76
2022/04/02 07:25:21;;;;;;;9.93;5.57;;;;;;;-145.69;100.00;72216.34;5074035;28;20202;-75
2022/04/02 07:27:49;;;;;;;7.73;5.20;;;;;;;-145.69;100.00;72210.38;5073833;28;20211;-76
2022/04/02 07:30:15;;;;;;;12.00;6.33;;;;;;;-145.69;100.00;72212.34;5073707;28;20199;-75
2022/04/02 07:32:42;;;;;;;9.30;5.57;;;;;;;-145.69;100.00;72206.38;5073705;28;20230;-76
2022/04/02 07:35:10;;;;;;;11.20;5.13;;;;;;;-145.69;100.00;72186.47;5073450;28;20337;-76
2022/04/02 07:37:51;;;;;;;17.73;5.60;;;;;;;-145.69;100.00;72196.44;5073650;28;20207;-76
2022/04/02 07:40:20;;;;;;;10.23;4.90;;;;;;;-145.69;100.00;72210.38;5054606;28;20272;-77
2022/04/02 07:43:01;;;;;;;8.43;4.57;;;;;;;-145.69;100.00;72242.22;5052763;28;20203;-77
2022/04/02 07:45:32;;;;;;;6.53;4.00;;;;;;;-145.69;100.00;72232.25;5053707;28;20207;-77
2022/04/02 07:48:00;;;;;;;8.53;5.07;;;;;;;-145.69;100.00;72234.25;5071226;28;20252;-76
2022/04/02 07:50:28;;;;;;;10.37;5.97;;;;;;;-145.69;100.00;72238.22;5073468;28;20252;-76
2022/04/02 07:52:56;;;;;;;10.93;5.33;;;;;;;-145.69;100.00;72250.16;5073640;28;20234;-75
2022/04/02 07:55:24;;;;;;;8.73;5.10;;;;;;;-145.69;100.00;72270.06;5073482;28;20286;-76
2022/04/02 07:57:52;;;;;;;8.17;4.83;;;;;;;-145.69;100.00;72272.06;5073357;28;20210;-76
2022/04/02 08:00:26;;;;;;;10.93;5.03;;;;;;;-145.69;100.00;72258.13;5073374;28;20198;-76
2022/04/02 08:02:52;;;;;;;6.50;4.47;;;;;;;-145.69;100.00;72270.06;5073264;28;20203;-75
2022/04/02 08:05:20;;;;;;;7.77;4.73;;;;;;;-145.69;100.00;72258.13;5073500;28;20211;-76
2022/04/02 08:07:49;;;;;;;7.63;4.90;;;;;;;-145.69;100.00;72258.13;5073241;28;20211;-75
2022/04/02 08:10:19;;;;;;;6.00;4.10;;;;;;;-145.69;100.00;72264.09;5072930;28;20199;-75
2022/04/02 08:12:46;;;;;;;6.27;4.47;;;;;;;-145.69;100.00;72274.06;5072958;28;20215;-75
2022/04/02 08:15:14;;;;;;;7.33;4.73;;;;;;;-145.69;100.00;72226.28;5072772;28;20658;-75
2022/04/02 08:17:41;;;;;;;6.73;4.33;;;;;;;-145.69;100.00;72214.34;5072838;28;20234;-75
2022/04/02 08:20:10;;;;;;;7.50;4.50;;;;;;;-145.69;100.00;72184.50;5072483;28;20210;-74
2022/04/02 08:22:37;;;;;;;5.40;3.70;;;;;;;-145.69;100.00;72186.47;5072418;28;20228;-75
2022/04/02 08:25:05;;;;;;;5.30;3.70;;;;;;;-145.69;100.00;72210.38;5072628;28;20194;-74
2022/04/02 08:27:38;;;;;;;6.50;4.13;;;;;;;-145.69;100.00;72214.34;5072634;28;20684;-74
2022/04/02 08:30:08;;;;;;;4.67;3.40;;;;;;;-145.69;100.00;72230.25;5072887;28;20263;-75
2022/04/02 08:32:54;;;;;;;6.30;4.13;;;;;;;-145.69;100.00;72242.22;5072613;28;20233;-74
2022/04/02 08:35:25;;;;;;;6.27;4.03;;;;;;;-145.69;100.00;72204.38;5072838;28;20202;-75
2022/04/02 08:38:04;;;;;;;5.20;4.00;;;;;;;-145.69;100.00;72214.34;5058136;28;20203;-74
2022/04/02 08:40:50;;;;;;;9.17;3.90;;;;;;;-145.69;100.00;72194.44;5052805;28;20199;-75
2022/04/02 08:43:59;;;;;;;5.83;3.63;;;;;;;-145.69;100.00;72230.25;5052810;28;20282;-75
2022/04/02 08:46:36;;;;;;;6.10;3.37;;;;;;;-145.69;100.00;72252.16;5064709;28;20558;-75
2022/04/02 08:49:22;;;;;;;5.43;3.53;;;;;;;-145.69;100.00;72234.25;5072607;28;20198;-75
2022/04/02 08:52:05;;;;;;;7.07;3.60;;;;;;;-145.69;100.00;72216.34;5072537;28;20290;-75
2022/04/02 08:54:39;;;;;;;6.83;4.00;;;;;;;-145.69;100.00;72242.22;5076341;28;20234;-75
2022/04/02 08:57:28;;;;;;;5.97;3.67;;;;;;;-145.69;100.00;72222.31;5076548;28;20681;-75
2022/04/02 09:00:05;;;;;;;5.13;3.70;;;;;;;-145.69;100.00;72238.22;5076627;28;20213;-74
2022/04/02 09:03:09;;;;;;;5.27;3.60;;;;;;;-145.69;100.00;72248.19;5076308;28;20202;-74
2022/04/02 09:06:05;;;;;;;6.10;3.40;;;;;;;-145.69;100.00;72242.22;5076493;28;20294;-74
2022/04/02 09:08:55;;;;;;;5.90;3.93;;;;;;;-145.69;100.00;72242.22;5076359;28;20194;-75
2022/04/02 09:11:24;;;;;;;6.50;4.10;;;;;;;-145.69;100.00;72230.25;5076571;28;20592;-75
2022/04/02 09:14:09;;;;;;;7.67;4.10;;;;;;;-145.69;100.00;72238.22;5076221;28;20227;-75
2022/04/02 09:16:54;;;;;;;6.27;3.93;;;;;;;-145.69;100.00;72226.28;5072697;28;20221;-76
2022/04/02 09:19:31;;;;;;;8.47;3.77;;;;;;;-145.69;100.00;72214.34;5076070;28;20256;-74
2022/04/02 09:22:05;;;;;;;7.50;4.40;;;;;;;-145.69;100.00;72224.28;5076141;28;20226;-75
2022/04/02 09:25:16;;;;;;;8.63;4.63;;;;;;;-145.69;100.00;72236.22;5076096;28;20296;-75
2022/04/02 09:28:08;;;;;;;9.70;5.10;;;;;;;-145.69;100.00;72232.25;5075962;28;20258;-77
2022/04/02 09:31:14;;;;;;;8.33;4.43;;;;;;;-145.69;100.00;72182.50;5076349;28;20601;-75
2022/04/02 09:34:07;;;;;;;10.43;4.50;;;;;;;-145.69;100.00;72198.41;5076018;28;20692;-75
2022/04/02 09:36:42;;;;;;;7.07;4.50;;;;;;;-145.69;100.00;72196.44;5058689;28;20263;-76
2022/04/02 09:39:17;;;;;;;7.83;4.80;;;;;;;-145.69;100.00;72206.38;5076230;28;20198;-76
2022/04/02 09:42:03;;;;;;;6.67;4.20;;;;;;;-145.69;100.00;72206.38;5076520;28;20635;-75
2022/04/02 09:44:45;;;;;;;6.03;4.57;;;;;;;-145.69;100.00;72198.41;5076473;28;20240;-75
2022/04/02 09:47:19;;;;;;;7.40;4.23;;;;;;;-145.69;100.00;72226.28;5076154;28;20608;-75
2022/04/02 09:49:57;;;;;;;6.47;3.80;;;;;;;-145.69;100.00;72238.22;5075765;28;20657;-75
2022/04/02 09:52:26;;;;;;;5.33;3.87;;;;;;;-145.69;100.00;72220.31;5076023;28;20573;-75
2022/04/02 09:55:06;;;;;;;9.43;3.67;;;;;;;-145.69;100.00;72206.38;5075559;28;20226;-75
2022/04/02 09:57:41;;;;;;;7.23;3.90;;;;;;;-145.69;100.00;72210.38;5075815;28;20206;-75
2022/04/02 10:00:09;;;;;;;7.37;4.37;;;;;;;-145.69;100.00;72248.19;5075717;28;20202;-75
2022/04/02 10:03:00;;;;;;;8.07;4.03;;;;;;;-145.69;100.00;72266.09;5075536;28;20198;-74
2022/04/02 10:05:36;;;;;;;4.80;3.73;;;;;;;-145.69;100.00;72278.03;5074445;28;20646;-74
2022/04/02 10:08:06;;;;;;;7.17;4.47;;;;;;;-145.69;100.00;72278.03;5075245;28;20210;-76
2022/04/02 10:10:33;;;;;;;7.87;4.57;;;;;;;-145.69;100.00;72228.28;5075635;28;20547;-74
2022/04/02 10:13:03;;;;;;;7.37;4.33;;;;;;;-145.69;100.00;72152.66;5074968;28;20206;-75
2022/04/02 10:15:32;;;;;;;7.93;4.80;;;;;;;-145.69;100.00;72067.06;5075028;28;20307;-75
2022/04/02 10:18:03;;;;;;;6.80;4.10;;;;;;;-145.69;100.00;72077.00;5074869;28;20242;-74
2022/04/02 10:20:33;;;;;;;11.40;4.30;;;;;;;-145.69;100.00;72067.06;5075163;28;20206;-75
2022/04/02 10:23:03;;;;;;;4.83;3.53;;;;;;;-145.69;100.00;72138.72;5074919;28;20210;-75
2022/04/02 10:25:40;;;;;;;7.63;4.13;;;;;;;-145.69;100.00;72182.50;5074819;28;20293;-75
2022/04/02 10:28:14;;;;;;;18.73;8.60;;;;;;;-145.69;100.00;72150.66;5074877;28;20202;-75
2022/04/02 10:30:45;;;;;;;9.53;5.43;;;;;;;-145.69;100.00;72150.66;5074934;28;20213;-74
2022/04/02 10:33:36;;;;;;;10.40;4.50;;;;;;;-145.69;100.00;72204.38;5074606;28;20285;-74
2022/04/02 10:36:10;;;;;;;7.93;4.50;;;;;;;-145.69;100.00;72258.13;5074696;28;20211;-74
2022/04/02 10:38:38;;;;;;;6.87;4.53;;;;;;;-145.69;100.00;72270.06;5073914;28;20195;-74
2022/04/02 10:41:09;;;;;;;6.32;4.18;;;;;;;-145.69;100.00;72270.06;5072193;28;20442;-74
2022/04/02 10:43:40;;;;;;;5.70;3.93;;;;;;;-145.69;100.00;72274.06;5055614;28;20231;-75
2022/04/02 10:46:07;;;;;;;5.67;4.03;;;;;;;-145.69;100.00;72270.06;5054646;28;20204;-75
2022/04/02 10:48:42;;;;;;;7.63;4.03;;;;;;;-145.69;100.00;72246.19;5054325;28;20693;-75
2022/04/02 10:51:13;;;;;;;4.83;3.50;;;;;;;-145.69;100.00;72200.41;5054274;28;20321;-75
2022/04/02 10:53:43;;;;;;;8.83;4.30;;;;;;;-145.69;100.00;72222.31;5054389;28;20693;-74
2022/04/02 10:56:16;;;;;;;7.03;4.10;;;;;;;-145.69;100.00;72142.69;5054437;28;20204;-74
2022/04/02 10:58:48;;;;;;;6.60;3.93;;;;;;;-145.69;100.00;72156.63;5054362;28;20249;-74
2022/04/02 11:01:19;;;;;;;7.23;4.17;;;;;;;-145.69;100.00;72162.59;5054273;28;20306;-75
2022/04/02 11:03:53;;;;;;;6.43;4.07;;;;;;;-145.69;100.00;72252.16;5054030;28;20238;-74
2022/04/02 11:06:49;;;;;;;5.43;3.83;;;;;;;-145.69;100.00;72226.28;5057962;28;20707;-74
2022/04/02 11:09:32;;;;;;;6.10;3.90;;;;;;;-145.69;100.00;72200.41;5074008;28;20203;-74
2022/04/02 11:12:04;;;;;;;6.37;3.97;;;;;;;-145.69;100.00;72162.59;5073772;28;20245;-75
2022/04/02 11:14:38;;;;;;;4.93;3.60;;;;;;;-145.69;100.00;72188.47;5074008;28;20241;-74
2022/04/02 11:17:05;;;;;;;6.00;4.27;;;;;;;-145.69;100.00;72166.56;5073420;28;20827;-75
2022/04/02 11:22:26;;;;;;;6.50;4.13;;;;;;;-145.69;96.76;72144.69;5073643;28;20209;-74